Time;durP1;ratioP1;P1;durP2;ratioP2;P2;SDS_P1;SDS_P2;PMS_P1;PMS_P2;Temp;Humidity;BMP_temperature;BMP_pressure;BME280_temperature;BME280_humidity;BME280_pressure;Samples;Min_cycle;Max_cycle;Signal;HPM_P1;HPM_P2
2022/07/29 00:01:47;;;;;;;6.97;5.20;;;17.30;95.60;;;;;;5109553;28;20092;-69
2022/07/29 00:04:13;;;;;;;9.50;5.65;;;17.40;96.00;;;;;;5117325;28;20414;-69
2022/07/29 00:06:38;;;;;;;7.07;5.20;;;17.40;95.80;;;;;;5117040;27;20435;-69
2022/07/29 00:09:04;;;;;;;7.30;5.40;;;17.30;96.00;;;;;;5117495;27;20035;-68
2022/07/29 00:11:32;;;;;;;6.78;4.95;;;17.30;96.20;;;;;;5114121;27;20110;-69
2022/07/29 00:13:58;;;;;;;9.43;5.30;;;17.30;96.00;;;;;;5111634;28;20032;-69
2022/07/29 00:16:26;;;;;;;6.30;5.25;;;17.30;96.50;;;;;;5112298;27;20020;-68
2022/07/29 00:18:52;;;;;;;7.15;5.65;;;17.20;95.90;;;;;;5113668;27;20053;-67
2022/07/29 00:21:18;;;;;;;8.73;5.07;;;17.20;95.60;;;;;;5109530;28;20032;-68
2022/07/29 00:23:44;;;;;;;6.75;4.90;;;17.10;95.80;;;;;;5116655;27;20047;-69
2022/07/29 00:26:10;;;;;;;8.65;5.82;;;17.10;95.60;;;;;;5114236;27;20072;-68
2022/07/29 00:28:36;;;;;;;5.97;4.60;;;17.10;95.80;;;;;;5115747;28;20460;-68
2022/07/29 00:31:04;;;;;;;5.82;4.82;;;17.20;96.60;;;;;;5118718;27;20032;-67
2022/07/29 00:33:30;;;;;;;9.20;5.40;;;17.20;96.70;;;;;;5115702;27;20118;-67
2022/07/29 00:35:55;;;;;;;7.40;5.70;;;17.20;96.30;;;;;;5114958;28;20114;-67
2022/07/29 00:38:21;;;;;;;10.20;6.05;;;17.20;96.00;;;;;;5115683;27;20031;-67
2022/07/29 00:40:47;;;;;;;8.27;5.40;;;17.10;96.20;;;;;;5110785;27;20023;-67
2022/07/29 00:43:14;;;;;;;8.60;5.82;;;17.20;95.90;;;;;;5110966;28;20026;-68
2022/07/29 00:45:40;;;;;;;10.45;6.25;;;17.20;96.00;;;;;;5115925;28;20043;-68
2022/07/29 00:48:10;;;;;;;8.65;6.40;;;17.20;95.60;;;;;;5115426;27;20020;-69
2022/07/29 00:50:36;;;;;;;8.90;6.55;;;17.20;95.10;;;;;;5114201;27;20065;-68
2022/07/29 00:53:04;;;;;;;9.38;6.22;;;17.10;94.70;;;;;;5115570;27;20051;-69
2022/07/29 00:55:30;;;;;;;8.23;6.55;;;17.00;94.10;;;;;;5112112;28;20377;-69
2022/07/29 00:57:58;;;;;;;10.70;7.25;;;17.00;94.00;;;;;;5117628;27;20076;-69
2022/07/29 01:00:30;;;;;;;8.13;6.80;;;16.90;93.40;;;;;;5115627;27;20020;-67
2022/07/29 01:02:56;;;;;;;8.82;7.15;;;17.00;94.00;;;;;;5107414;28;20028;-69
2022/07/29 01:05:24;;;;;;;9.40;7.68;;;17.00;94.00;;;;;;5113134;28;20062;-67
2022/07/29 01:07:57;;;;;;;9.52;7.43;;;17.10;94.30;;;;;;5116295;27;20038;-68
2022/07/29 01:10:23;;;;;;;10.82;7.43;;;17.10;94.10;;;;;;5116033;27;20024;-67
2022/07/29 01:12:51;;;;;;;8.13;6.90;;;17.00;94.10;;;;;;5110481;28;20032;-67
2022/07/29 01:15:17;;;;;;;11.02;7.55;;;17.00;94.00;;;;;;5100956;27;20394;-67
2022/07/29 01:18:03;;;;;;;12.05;7.85;;;17.00;93.50;;;;;;5110059;27;20114;-68
2022/07/29 01:20:47;;;;;;;9.63;7.88;;;16.90;93.40;;;;;;5113441;27;20045;-68
2022/07/29 01:23:30;;;;;;;9.43;7.65;;;17.00;93.80;;;;;;5111057;27;20684;-69
2022/07/29 01:26:13;;;;;;;12.63;7.68;;;17.00;93.50;;;;;;5108898;27;20031;-69
2022/07/29 01:28:54;;;;;;;9.73;7.35;;;17.00;93.60;;;;;;5114463;28;20424;-68
2022/07/29 01:31:25;;;;;;;10.70;8.18;;;16.90;93.40;;;;;;5105937;27;20493;-68
2022/07/29 01:34:00;;;;;;;11.48;8.23;;;16.90;93.40;;;;;;5111980;27;20069;-68
2022/07/29 01:36:32;;;;;;;10.10;7.60;;;16.90;93.20;;;;;;5104959;28;20024;-68
2022/07/29 01:39:11;;;;;;;9.48;7.32;;;17.00;93.80;;;;;;5113976;28;20058;-69
2022/07/29 01:41:41;;;;;;;7.90;6.50;;;17.00;94.00;;;;;;5111937;28;20020;-68
2022/07/29 01:44:22;;;;;;;8.73;6.93;;;17.00;94.70;;;;;;5112446;27;20019;-68
2022/07/29 01:46:56;;;;;;;9.25;6.75;;;17.00;95.30;;;;;;5110844;27;20054;-68
2022/07/29 01:49:26;;;;;;;8.45;6.70;;;17.00;95.50;;;;;;5110205;28;20023;-67
2022/07/29 01:51:57;;;;;;;10.13;6.95;;;17.00;95.30;;;;;;5109256;27;20036;-68
2022/07/29 01:54:43;;;;;;;7.70;6.47;;;16.90;95.10;;;;;;5109998;28;20317;-68
2022/07/29 01:57:13;;;;;;;11.07;7.05;;;16.80;95.20;;;;;;5113026;28;20070;-69
2022/07/29 01:59:40;;;;;;;8.43;6.82;;;16.80;95.20;;;;;;5108417;28;20073;-68
2022/07/29 02:02:08;;;;;;;7.88;6.10;;;16.80;95.10;;;;;;5112233;28;20029;-68
2022/07/29 02:04:36;;;;;;;8.90;6.20;;;16.80;95.40;;;;;;5108422;28;20440;-69
2022/07/29 02:07:05;;;;;;;7.93;6.38;;;16.70;95.40;;;;;;5112661;27;20039;-69
2022/07/29 02:09:33;;;;;;;8.25;6.45;;;16.70;95.30;;;;;;5110846;28;20423;-69
2022/07/29 02:12:01;;;;;;;8.15;6.55;;;16.70;95.60;;;;;;5112236;28;20035;-69
2022/07/29 02:14:31;;;;;;;6.93;5.47;;;16.70;95.40;;;;;;5103288;27;20027;-68
2022/07/29 02:17:03;;;;;;;7.25;5.47;;;16.70;95.90;;;;;;5107976;28;20323;-69
2022/07/29 02:19:31;;;;;;;7.45;4.75;;;16.70;96.30;;;;;;5114683;27;20028;-68
2022/07/29 02:21:58;;;;;;;8.27;5.32;;;16.70;96.80;;;;;;5112918;27;20096;-68
2022/07/29 02:24:25;;;;;;;11.15;6.05;;;16.70;96.50;;;;;;5111266;28;20402;-69
2022/07/29 02:26:54;;;;;;;7.10;4.80;;;16.70;96.40;;;;;;5112982;28;20305;-69
2022/07/29 02:29:24;;;;;;;7.90;5.00;;;16.70;96.70;;;;;;5095427;28;20123;-68
2022/07/29 02:31:51;;;;;;;6.28;4.28;;;16.70;96.70;;;;;;5112249;27;20482;-68
2022/07/29 02:34:21;;;;;;;6.55;4.22;;;16.70;97.30;;;;;;5111484;28;20069;-69
2022/07/29 02:36:48;;;;;;;6.70;4.57;;;16.70;97.50;;;;;;5113348;28;20047;-68
2022/07/29 02:39:18;;;;;;;6.20;4.57;;;16.70;97.40;;;;;;5112184;28;20028;-68
2022/07/29 02:41:46;;;;;;;6.35;4.35;;;16.70;96.90;;;;;;5111932;28;20019;-68
2022/07/29 02:44:18;;;;;;;7.22;4.40;;;16.60;97.30;;;;;;5110623;28;20031;-69
2022/07/29 02:47:10;;;;;;;7.45;4.82;;;16.60;97.00;;;;;;5113118;28;20038;-69
2022/07/29 02:49:41;;;;;;;6.45;4.70;;;16.60;96.90;;;;;;5111933;28;20439;-68
2022/07/29 02:52:39;;;;;;;6.15;4.45;;;16.60;96.90;;;;;;5112673;27;20034;-68
2022/07/29 02:55:21;;;;;;;7.50;4.88;;;16.60;97.10;;;;;;5097805;28;20038;-69
2022/07/29 02:58:03;;;;;;;6.97;4.78;;;16.50;96.90;;;;;;5107796;28;20042;-68
2022/07/29 03:00:31;;;;;;;6.80;5.50;;;16.50;96.70;;;;;;5110249;28;20030;-67
2022/07/29 03:03:00;;;;;;;8.73;5.43;;;16.40;96.50;;;;;;5108356;28;20114;-67
2022/07/29 03:05:27;;;;;;;6.82;4.82;;;16.40;95.90;;;;;;5101287;28;20100;-68
2022/07/29 03:08:00;;;;;;;7.75;5.15;;;16.30;95.80;;;;;;5107563;28;20024;-67
2022/07/29 03:10:27;;;;;;;7.72;4.78;;;16.30;96.00;;;;;;5110420;28;20492;-67
2022/07/29 03:12:55;;;;;;;7.20;5.03;;;16.30;95.80;;;;;;5109895;28;20038;-67
2022/07/29 03:15:21;;;;;;;7.50;5.63;;;16.20;95.40;;;;;;5110854;28;20054;-67
2022/07/29 03:17:47;;;;;;;8.82;5.38;;;16.10;94.80;;;;;;5115155;28;20024;-68
2022/07/29 03:20:13;;;;;;;8.55;4.65;;;16.00;94.40;;;;;;5114365;27;20053;-67
2022/07/29 03:22:46;;;;;;;7.47;5.43;;;15.90;94.10;;;;;;5113581;27;20027;-67
2022/07/29 03:25:13;;;;;;;7.53;5.40;;;15.80;93.40;;;;;;5108655;27;20023;-67
2022/07/29 03:27:39;;;;;;;7.22;5.15;;;15.70;93.00;;;;;;5118326;27;20027;-65
2022/07/29 03:30:06;;;;;;;7.88;5.55;;;15.70;92.70;;;;;;5115185;27;20035;-66
2022/07/29 03:32:32;;;;;;;6.80;4.70;;;15.60;92.10;;;;;;5116221;27;20027;-66
2022/07/29 03:34:57;;;;;;;10.70;5.07;;;15.60;91.70;;;;;;5113158;27;20042;-66
2022/07/29 03:37:23;;;;;;;6.88;4.50;;;15.60;91.90;;;;;;5113509;28;20021;-67
2022/07/29 03:39:50;;;;;;;5.80;4.32;;;15.60;91.70;;;;;;5106787;27;20059;-66
2022/07/29 03:42:19;;;;;;;7.00;4.72;;;15.70;92.10;;;;;;5117964;27;20016;-67
2022/07/29 03:44:49;;;;;;;8.27;4.25;;;15.70;92.60;;;;;;5114130;27;20024;-67
2022/07/29 03:47:17;;;;;;;6.40;4.53;;;15.70;93.30;;;;;;5115512;27;20031;-67
2022/07/29 03:49:46;;;;;;;5.53;3.53;;;15.80;93.90;;;;;;5115464;27;20035;-67
2022/07/29 03:52:15;;;;;;;6.35;3.60;;;15.90;95.00;;;;;;5119518;27;20059;-67
2022/07/29 03:54:40;;;;;;;6.68;4.55;;;16.10;95.60;;;;;;5110134;27;20365;-68
2022/07/29 03:57:10;;;;;;;7.22;3.97;;;16.20;96.00;;;;;;5113747;27;20015;-67
2022/07/29 03:59:37;;;;;;;7.30;4.05;;;16.30;96.40;;;;;;5105420;27;20098;-67
2022/07/29 04:02:05;;;;;;;6.72;4.22;;;16.30;96.20;;;;;;5114338;27;20054;-67
2022/07/29 04:04:34;;;;;;;6.55;4.20;;;16.30;96.40;;;;;;5110133;27;20140;-67
2022/07/29 04:07:00;;;;;;;6.15;4.03;;;16.20;96.10;;;;;;5114011;27;20027;-67
2022/07/29 04:09:26;;;;;;;7.38;4.38;;;16.30;96.20;;;;;;5110284;27;20053;-67
2022/07/29 04:11:52;;;;;;;5.97;3.83;;;16.30;96.50;;;;;;5110865;27;20358;-66
2022/07/29 04:14:18;;;;;;;6.07;3.83;;;16.40;96.80;;;;;;5115587;27;20031;-67
2022/07/29 04:16:44;;;;;;;7.30;4.38;;;16.50;97.40;;;;;;5115050;27;20023;-67
2022/07/29 04:19:09;;;;;;;7.30;4.10;;;16.50;97.30;;;;;;5112936;27;20046;-67
2022/07/29 04:21:39;;;;;;;6.35;4.07;;;16.60;97.00;;;;;;5112756;27;20035;-68
2022/07/29 04:24:05;;;;;;;8.32;4.28;;;16.50;96.80;;;;;;5115074;27;20016;-67
2022/07/29 04:26:31;;;;;;;5.18;3.90;;;16.50;96.80;;;;;;5109749;27;20019;-68
2022/07/29 04:28:56;;;;;;;7.10;4.20;;;16.60;97.40;;;;;;5109293;27;20122;-68
2022/07/29 04:31:22;;;;;;;7.82;4.30;;;16.60;97.50;;;;;;5110204;27;20035;-68
2022/07/29 04:33:48;;;;;;;7.72;4.22;;;16.60;97.30;;;;;;5115549;27;20024;-67
2022/07/29 04:36:15;;;;;;;8.60;4.15;;;16.60;97.00;;;;;;5111347;27;20032;-68
2022/07/29 04:38:41;;;;;;;6.53;4.10;;;16.50;96.30;;;;;;5119112;27;20027;-68
2022/07/29 04:41:08;;;;;;;8.02;4.40;;;16.40;96.20;;;;;;5114294;27;20419;-67
2022/07/29 04:43:36;;;;;;;9.90;5.10;;;16.30;95.70;;;;;;5112847;27;20316;-68
2022/07/29 04:46:03;;;;;;;7.65;4.38;;;16.30;96.00;;;;;;5114744;27;20028;-68
2022/07/29 04:48:29;;;;;;;5.82;4.15;;;16.40;95.40;;;;;;5112140;27;20024;-67
2022/07/29 04:50:58;;;;;;;8.20;4.32;;;16.30;95.10;;;;;;5111162;27;20031;-68
2022/07/29 04:53:24;;;;;;;6.60;4.47;;;16.10;94.40;;;;;;5116423;28;20032;-67
2022/07/29 04:55:50;;;;;;;7.35;4.45;;;16.10;94.30;;;;;;5109793;27;20052;-67
2022/07/29 04:58:16;;;;;;;9.43;4.78;;;16.10;94.10;;;;;;5113796;27;20294;-68
2022/07/29 05:00:42;;;;;;;6.13;4.00;;;16.10;94.20;;;;;;5108420;27;20024;-68
2022/07/29 05:03:07;;;;;;;10.15;4.65;;;16.10;94.30;;;;;;5117373;27;20371;-67
2022/07/29 05:05:33;;;;;;;12.90;5.18;;;16.20;94.30;;;;;;5107618;27;20055;-67
2022/07/29 05:07:59;;;;;;;5.78;4.53;;;16.20;94.20;;;;;;5113919;27;20035;-67
2022/07/29 05:10:24;;;;;;;7.03;4.43;;;16.20;94.20;;;;;;5114341;27;20404;-67
2022/07/29 05:12:50;;;;;;;8.07;4.45;;;16.10;93.90;;;;;;5112606;27;20110;-67
2022/07/29 05:15:17;;;;;;;7.35;4.68;;;16.10;93.90;;;;;;5109167;27;20024;-66
2022/07/29 05:17:43;;;;;;;7.45;4.82;;;16.20;94.10;;;;;;5106916;27;20024;-67
2022/07/29 05:20:09;;;;;;;7.07;4.50;;;16.20;94.20;;;;;;5114888;28;20035;-67
2022/07/29 05:22:34;;;;;;;8.38;4.70;;;16.30;94.20;;;;;;5111123;28;20026;-67
2022/07/29 05:25:00;;;;;;;6.88;4.60;;;16.30;94.00;;;;;;5109789;27;20036;-67
2022/07/29 05:27:26;;;;;;;6.50;4.55;;;16.30;94.10;;;;;;5110240;27;20034;-67
2022/07/29 05:29:51;;;;;;;5.90;4.20;;;16.40;94.70;;;;;;5115966;27;20084;-68
2022/07/29 05:32:17;;;;;;;6.60;4.38;;;16.50;95.70;;;;;;5112610;27;20408;-67
2022/07/29 05:34:43;;;;;;;6.97;4.35;;;16.80;95.90;;;;;;5110947;27;20268;-68
2022/07/29 05:37:09;;;;;;;6.13;3.92;;;17.10;96.30;;;;;;5115245;27;20030;-68
2022/07/29 05:39:34;;;;;;;10.35;3.90;;;17.40;97.50;;;;;;5117352;27;20011;-68
2022/07/29 05:42:00;;;;;;;7.15;3.90;;;17.70;97.80;;;;;;5112301;28;20047;-68
2022/07/29 05:44:26;;;;;;;6.78;3.90;;;17.80;97.80;;;;;;5108421;27;20030;-67
2022/07/29 05:46:51;;;;;;;7.38;4.43;;;18.20;98.00;;;;;;5109054;27;20366;-68
2022/07/29 05:49:17;;;;;;;7.30;3.47;;;18.40;98.00;;;;;;5117901;27;20324;-68
2022/07/29 05:51:43;;;;;;;5.25;3.10;;;18.60;98.00;;;;;;5114915;28;20023;-68
2022/07/29 05:54:09;;;;;;;6.82;3.45;;;18.70;98.00;;;;;;5108205;27;20034;-68
2022/07/29 05:56:38;;;;;;;5.30;3.20;;;18.60;98.00;;;;;;5110129;27;20035;-68
2022/07/29 05:59:10;;;;;;;5.10;3.20;;;18.50;98.00;;;;;;5115242;27;20066;-68
2022/07/29 06:01:39;;;;;;;5.13;3.50;;;18.70;98.00;;;;;;5115109;28;20104;-68
2022/07/29 06:04:05;;;;;;;6.50;3.60;;;18.80;98.00;;;;;;5117264;27;20344;-68
2022/07/29 06:06:31;;;;;;;9.48;3.85;;;18.90;98.00;;;;;;5114855;27;20039;-68
2022/07/29 06:08:57;;;;;;;6.95;3.35;;;19.00;98.00;;;;;;5116050;27;20075;-68
2022/07/29 06:11:22;;;;;;;5.00;3.10;;;19.20;98.00;;;;;;5114698;27;20320;-68
2022/07/29 06:13:51;;;;;;;6.25;3.20;;;19.40;98.00;;;;;;5114183;28;20062;-68
2022/07/29 06:16:16;;;;;;;6.70;3.58;;;19.60;97.90;;;;;;5112687;27;20311;-68
2022/07/29 06:18:42;;;;;;;6.68;3.20;;;19.70;97.70;;;;;;5117203;27;20057;-68
2022/07/29 06:21:12;;;;;;;7.10;3.42;;;19.70;97.70;;;;;;5108569;28;20020;-67
2022/07/29 06:23:38;;;;;;;6.13;3.58;;;19.70;97.60;;;;;;5106520;27;20024;-67
2022/07/29 06:26:05;;;;;;;6.32;3.40;;;19.70;97.60;;;;;;5114932;28;20023;-67
2022/07/29 06:28:31;;;;;;;5.43;3.78;;;19.60;97.60;;;;;;5115038;28;20098;-67
2022/07/29 06:30:57;;;;;;;6.85;3.35;;;19.60;97.70;;;;;;5116566;27;20023;-69
2022/07/29 06:33:23;;;;;;;9.63;3.60;;;19.60;97.40;;;;;;5113299;28;20026;-68
2022/07/29 06:35:49;;;;;;;4.82;3.17;;;19.70;97.60;;;;;;5114036;27;20130;-68
2022/07/29 06:38:15;;;;;;;8.88;4.00;;;19.90;97.50;;;;;;5114295;28;20404;-68
2022/07/29 06:43:33;;;;;;;4.45;2.75;;;20.60;97.40;;;;;;5113304;28;20030;-69
2022/07/29 06:46:13;;;;;;;4.70;2.92;;;21.10;96.30;;;;;;5114332;28;20027;-67
2022/07/29 06:48:41;;;;;;;7.40;3.38;;;21.70;94.30;;;;;;5114954;28;20098;-68
2022/07/29 06:51:07;;;;;;;5.60;2.85;;;22.30;89.00;;;;;;5113352;28;20423;-68
2022/07/29 06:53:38;;;;;;;6.72;2.95;;;23.10;84.00;;;;;;5116486;28;20034;-68
2022/07/29 06:56:12;;;;;;;5.50;3.30;;;23.60;81.20;;;;;;5112306;28;20042;-66
2022/07/29 06:58:38;;;;;;;5.63;3.10;;;23.70;81.20;;;;;;5115269;28;20412;-67
2022/07/29 07:01:05;;;;;;;5.32;2.90;;;24.10;81.80;;;;;;5113737;28;20119;-67
2022/07/29 07:03:35;;;;;;;7.40;2.97;;;24.10;81.60;;;;;;5115717;28;20092;-67
2022/07/29 07:06:01;;;;;;;6.95;3.70;;;24.00;79.10;;;;;;5114197;28;20100;-67
2022/07/29 07:08:27;;;;;;;6.05;3.00;;;23.70;79.60;;;;;;5113580;28;20404;-67
2022/07/29 07:10:53;;;;;;;6.20;3.30;;;23.60;80.20;;;;;;5110954;28;20312;-68
2022/07/29 07:13:19;;;;;;;5.78;2.90;;;23.40;79.90;;;;;;5114907;28;20061;-68
2022/07/29 07:15:47;;;;;;;5.75;3.03;;;23.30;80.90;;;;;;5114652;28;20113;-67
2022/07/29 07:18:13;;;;;;;5.00;3.10;;;23.00;81.20;;;;;;5113749;28;20019;-68
2022/07/29 07:20:39;;;;;;;9.38;3.55;;;22.80;82.00;;;;;;5115158;28;20055;-68
2022/07/29 07:23:05;;;;;;;5.55;3.10;;;22.80;81.20;;;;;;5114058;28;20058;-68
2022/07/29 07:25:31;;;;;;;5.65;3.10;;;22.60;82.80;;;;;;5111844;28;20120;-68
2022/07/29 07:27:57;;;;;;;6.70;3.20;;;22.80;82.80;;;;;;5113649;28;20095;-68
2022/07/29 07:30:23;;;;;;;8.73;3.47;;;22.60;82.20;;;;;;5112710;28;20144;-67
2022/07/29 07:32:48;;;;;;;5.22;3.15;;;22.60;82.20;;;;;;5115111;28;20100;-68
2022/07/29 07:35:14;;;;;;;6.95;3.50;;;22.60;83.70;;;;;;5114294;28;20035;-67
2022/07/29 07:37:43;;;;;;;6.05;3.30;;;22.60;81.60;;;;;;5113751;28;20032;-67
2022/07/29 07:40:11;;;;;;;9.63;3.45;;;22.60;81.10;;;;;;5112637;28;20312;-68
2022/07/29 07:42:38;;;;;;;6.32;3.38;;;22.50;80.90;;;;;;5111352;28;20027;-67
2022/07/29 07:45:05;;;;;;;7.80;3.20;;;22.70;81.10;;;;;;5114915;28;20425;-68
2022/07/29 07:47:31;;;;;;;8.15;3.28;;;23.40;80.50;;;;;;5111849;28;20032;-67
2022/07/29 07:49:57;;;;;;;7.13;3.58;;;23.90;76.20;;;;;;5113985;28;20080;-68
2022/07/29 07:52:22;;;;;;;5.72;3.22;;;24.60;75.50;;;;;;5114537;28;20035;-68
2022/07/29 07:54:49;;;;;;;7.90;3.10;;;25.50;72.00;;;;;;5113210;28;20038;-68
2022/07/29 07:57:15;;;;;;;8.80;3.38;;;26.70;68.60;;;;;;5111096;28;20027;-68
2022/07/29 07:59:41;;;;;;;7.18;3.33;;;27.20;68.70;;;;;;5115861;28;20035;-68
2022/07/29 08:02:09;;;;;;;5.25;2.67;;;28.00;67.10;;;;;;5115220;28;20028;-68
2022/07/29 08:04:35;;;;;;;4.80;2.88;;;28.10;67.60;;;;;;5119193;28;20036;-69
2022/07/29 08:07:01;;;;;;;5.53;3.08;;;27.50;66.70;;;;;;5115993;27;20035;-68
2022/07/29 08:09:30;;;;;;;7.28;2.90;;;26.70;68.10;;;;;;5121664;27;20043;-67
2022/07/29 08:11:58;;;;;;;7.85;3.15;;;26.30;69.70;;;;;;5115607;27;20316;-67
2022/07/29 08:14:23;;;;;;;6.88;2.90;;;25.90;70.70;;;;;;5117197;27;20027;-67
2022/07/29 08:16:49;;;;;;;5.57;3.03;;;25.80;71.70;;;;;;5117470;27;20484;-67
2022/07/29 08:19:15;;;;;;;6.10;3.28;;;25.60;71.40;;;;;;5119422;27;20443;-68
2022/07/29 08:21:41;;;;;;;7.40;3.00;;;26.00;71.00;;;;;;5116288;27;20030;-67
2022/07/29 08:26:53;;;;;;;8.00;2.70;;;26.80;69.10;;;;;;5115771;28;20034;-68
2022/07/29 08:29:19;;;;;;;7.75;3.00;;;27.60;67.50;;;;;;5116880;28;20213;-67
2022/07/29 08:31:45;;;;;;;8.35;2.92;;;27.50;67.00;;;;;;5117946;27;20114;-67
2022/07/29 08:34:11;;;;;;;6.82;2.78;;;27.40;68.30;;;;;;5116760;27;20027;-68
2022/07/29 08:36:38;;;;;;;7.88;3.10;;;27.70;68.10;;;;;;5116231;27;20022;-67
2022/07/29 08:39:04;;;;;;;7.65;2.90;;;28.30;68.10;;;;;;5120394;27;20049;-67
2022/07/29 08:41:30;;;;;;;8.52;3.10;;;28.70;65.20;;;;;;5110093;28;20080;-67
2022/07/29 08:43:56;;;;;;;8.63;2.75;;;27.80;66.40;;;;;;5118052;28;20024;-68
2022/07/29 08:46:22;;;;;;;8.65;3.10;;;28.00;66.50;;;;;;5115317;27;20012;-68
2022/07/29 08:48:48;;;;;;;6.13;2.88;;;28.00;67.80;;;;;;5118020;27;20038;-68
2022/07/29 08:51:18;;;;;;;7.57;2.90;;;28.50;64.40;;;;;;5115069;27;20016;-68
2022/07/29 08:53:47;;;;;;;5.63;2.85;;;29.10;63.80;;;;;;5117551;28;20032;-68
2022/07/29 08:56:13;;;;;;;6.82;2.88;;;28.50;63.90;;;;;;5115009;27;20061;-68
2022/07/29 08:58:42;;;;;;;6.65;2.80;;;28.00;65.80;;;;;;5117755;28;20024;-68
2022/07/29 09:01:10;;;;;;;7.53;2.90;;;27.90;66.10;;;;;;5117772;27;20027;-68
2022/07/29 09:03:37;;;;;;;6.78;3.47;;;27.90;66.30;;;;;;5106205;28;20102;-68
2022/07/29 09:06:03;;;;;;;8.02;2.88;;;27.70;65.80;;;;;;5104176;27;20364;-67
2022/07/29 09:08:32;;;;;;;7.05;2.80;;;27.90;66.10;;;;;;5116090;28;20417;-68
2022/07/29 09:10:59;;;;;;;6.38;3.17;;;28.60;64.70;;;;;;5116802;27;20108;-67
2022/07/29 09:13:25;;;;;;;7.97;2.88;;;29.30;63.70;;;;;;5117388;28;20088;-67
2022/07/29 09:15:52;;;;;;;6.88;3.22;;;29.80;63.10;;;;;;5115622;28;20073;-66
2022/07/29 09:18:40;;;;;;;7.63;2.92;;;29.60;63.80;;;;;;5116692;28;20416;-66
2022/07/29 09:24:19;;;;;;;14.93;3.53;;;29.00;64.90;;;;;;5109817;28;20080;-66
2022/07/29 09:26:45;;;;;;;7.10;3.30;;;29.10;64.20;;;;;;5113314;28;20046;-68
2022/07/29 09:29:17;;;;;;;7.72;3.67;;;29.00;65.30;;;;;;5113042;28;20024;-68
2022/07/29 09:31:48;;;;;;;9.30;3.17;;;28.90;64.50;;;;;;5116169;27;20039;-67
2022/07/29 09:34:16;;;;;;;7.97;3.08;;;28.80;64.70;;;;;;5116256;27;20031;-67
2022/07/29 09:36:47;;;;;;;8.40;3.00;;;28.70;66.30;;;;;;5115602;27;20020;-67
2022/07/29 09:39:24;;;;;;;5.68;3.35;;;29.10;65.70;;;;;;5115320;28;20368;-68
2022/07/29 09:42:02;;;;;;;7.07;3.65;;;29.00;63.90;;;;;;5116053;28;20432;-67
2022/07/29 09:44:43;;;;;;;8.07;3.45;;;29.00;64.30;;;;;;5116873;28;20069;-68
2022/07/29 09:47:08;;;;;;;6.60;3.50;;;29.00;64.40;;;;;;5113094;28;20016;-66
2022/07/29 09:49:57;;;;;;;7.57;3.45;;;28.70;65.40;;;;;;5117542;28;20439;-66
2022/07/29 09:52:23;;;;;;;6.97;3.45;;;29.20;64.00;;;;;;5115630;27;20038;-68
2022/07/29 09:54:49;;;;;;;6.55;3.50;;;29.00;63.60;;;;;;5118573;27;20027;-68
2022/07/29 09:57:26;;;;;;;9.05;3.28;;;28.90;64.80;;;;;;5115183;28;20340;-68
2022/07/29 09:59:56;;;;;;;6.20;3.17;;;28.80;64.20;;;;;;5117509;28;20012;-66
2022/07/29 10:02:22;;;;;;;5.60;3.40;;;28.50;64.90;;;;;;5116307;28;20153;-65
2022/07/29 10:04:48;;;;;;;11.75;3.90;;;28.10;64.60;;;;;;5116732;28;20120;-68
2022/07/29 10:07:14;;;;;;;7.10;3.40;;;27.70;66.40;;;;;;5118198;27;20020;-67
2022/07/29 10:09:58;;;;;;;5.63;3.40;;;27.30;67.80;;;;;;5115814;28;20031;-67
2022/07/29 10:12:25;;;;;;;5.55;3.50;;;27.40;67.60;;;;;;5115203;28;20028;-68
2022/07/29 10:14:52;;;;;;;7.72;3.83;;;27.60;66.70;;;;;;5114114;28;20106;-67
2022/07/29 10:17:19;;;;;;;8.10;3.47;;;27.30;66.50;;;;;;5115816;28;20136;-67
2022/07/29 10:19:45;;;;;;;9.07;3.83;;;27.50;68.00;;;;;;5114802;28;20400;-65
2022/07/29 10:22:11;;;;;;;7.40;3.67;;;27.30;67.90;;;;;;5112949;27;20062;-67
2022/07/29 10:24:38;;;;;;;5.40;3.30;;;27.40;68.30;;;;;;5113361;28;20445;-68
2022/07/29 10:27:08;;;;;;;10.57;3.47;;;27.90;66.10;;;;;;5114745;28;20152;-67
2022/07/29 10:29:34;;;;;;;6.70;3.38;;;28.40;66.20;;;;;;5114886;28;20032;-68
2022/07/29 10:32:14;;;;;;;9.52;3.38;;;28.30;65.90;;;;;;5114506;28;20035;-67
2022/07/29 10:35:08;;;;;;;9.20;4.65;;;28.00;64.80;;;;;;5116482;28;20313;-66
2022/07/29 10:37:45;;;;;;;6.00;3.40;;;28.00;66.10;;;;;;5115149;27;20027;-67
2022/07/29 10:43:17;;;;;;;6.25;3.10;;;28.40;64.50;;;;;;5115848;28;20034;-68
2022/07/29 10:45:45;;;;;;;5.93;3.50;;;28.90;62.90;;;;;;5114957;28;20521;-67
2022/07/29 10:48:10;;;;;;;8.77;3.30;;;29.20;62.40;;;;;;5116376;28;20072;-67
2022/07/29 10:50:56;;;;;;;6.82;3.83;;;29.40;62.20;;;;;;5115407;28;20028;-68
2022/07/29 10:53:23;;;;;;;6.95;3.47;;;29.30;62.30;;;;;;5114349;28;20462;-67
2022/07/29 10:55:50;;;;;;;8.48;3.78;;;29.50;61.80;;;;;;5111191;28;20062;-68
2022/07/29 10:58:26;;;;;;;10.85;4.22;;;29.10;62.90;;;;;;5116379;28;20073;-68
2022/07/29 11:00:54;;;;;;;8.90;3.20;;;28.50;65.40;;;;;;5115490;28;20019;-67
2022/07/29 11:03:46;;;;;;;11.38;3.55;;;28.40;65.00;;;;;;5116098;28;20305;-67
2022/07/29 11:06:13;;;;;;;6.88;4.18;;;28.20;65.30;;;;;;5113879;28;20066;-68
2022/07/29 11:08:41;;;;;;;13.00;4.00;;;27.70;66.80;;;;;;5116368;28;20028;-67
2022/07/29 11:11:33;;;;;;;9.68;3.50;;;28.10;65.80;;;;;;5111379;28;20022;-67
2022/07/29 11:13:58;;;;;;;7.45;3.33;;;28.50;65.70;;;;;;5105877;28;20118;-67
2022/07/29 11:16:25;;;;;;;9.85;3.50;;;28.50;64.70;;;;;;5112995;28;20380;-67
2022/07/29 11:19:15;;;;;;;8.55;3.63;;;28.30;65.10;;;;;;5114024;28;20108;-67
2022/07/29 11:21:49;;;;;;;7.53;3.25;;;28.30;65.40;;;;;;5112325;28;20059;-68
2022/07/29 11:24:22;;;;;;;8.93;3.70;;;28.30;66.00;;;;;;5114904;28;20020;-67
2022/07/29 11:27:07;;;;;;;7.30;3.30;;;28.50;65.50;;;;;;5116353;28;20020;-67
2022/07/29 11:29:39;;;;;;;6.45;3.75;;;28.20;65.70;;;;;;5095750;28;20306;-67
2022/07/29 11:32:16;;;;;;;8.98;3.30;;;28.30;65.00;;;;;;5114141;28;20035;-68
2022/07/29 11:34:42;;;;;;;8.63;3.58;;;28.20;65.80;;;;;;5113096;28;20063;-67
2022/07/29 11:37:11;;;;;;;8.43;3.25;;;28.30;65.70;;;;;;5115913;28;20477;-68
2022/07/29 11:39:54;;;;;;;6.95;3.47;;;28.60;65.50;;;;;;5116706;27;20027;-67
2022/07/29 11:42:20;;;;;;;6.30;3.13;;;29.20;64.10;;;;;;5110331;27;20031;-68
2022/07/29 11:45:05;;;;;;;7.22;3.35;;;30.00;62.60;;;;;;5119037;28;20031;-68
2022/07/29 11:47:32;;;;;;;6.13;3.28;;;30.00;62.90;;;;;;5119111;27;20039;-67
2022/07/29 11:50:02;;;;;;;7.75;3.60;;;29.70;62.40;;;;;;5117750;28;20038;-67
2022/07/29 11:52:37;;;;;;;9.20;3.83;;;29.00;63.70;;;;;;5116893;27;20427;-67
2022/07/29 11:55:04;;;;;;;7.75;3.63;;;28.50;64.60;;;;;;5117648;28;20598;-68
2022/07/29 11:57:30;;;;;;;7.68;3.85;;;27.70;66.50;;;;;;5117135;27;20045;-67
2022/07/29 11:59:57;;;;;;;7.78;3.45;;;27.40;67.40;;;;;;5118143;28;20028;-67
2022/07/29 12:02:38;;;;;;;6.82;4.00;;;27.40;68.20;;;;;;5118260;27;20034;-67
2022/07/29 12:05:07;;;;;;;6.07;3.67;;;27.40;67.30;;;;;;5117989;27;20052;-67
2022/07/29 12:07:34;;;;;;;7.57;3.80;;;27.30;66.30;;;;;;5118969;27;20032;-67
2022/07/29 12:10:01;;;;;;;7.97;3.33;;;27.30;67.20;;;;;;5117565;28;20028;-66
2022/07/29 12:12:27;;;;;;;8.95;4.00;;;27.00;66.30;;;;;;5118940;27;20023;-66
2022/07/29 12:14:54;;;;;;;6.93;3.50;;;27.00;66.50;;;;;;5116120;27;20412;-65
2022/07/29 12:17:34;;;;;;;9.82;4.05;;;26.60;66.80;;;;;;5115095;28;20323;-66
2022/07/29 12:20:03;;;;;;;8.95;3.65;;;26.30;68.10;;;;;;5121562;27;20024;-66
2022/07/29 12:22:36;;;;;;;8.05;3.83;;;26.10;69.30;;;;;;5116902;28;20020;-67
2022/07/29 12:25:14;;;;;;;6.35;3.70;;;26.00;69.90;;;;;;5116979;28;20413;-66
2022/07/29 12:27:40;;;;;;;12.00;4.00;;;25.70;69.90;;;;;;5106699;27;20081;-66
2022/07/29 12:30:08;;;;;;;7.75;4.32;;;25.20;70.60;;;;;;5113817;27;20371;-67
2022/07/29 12:32:36;;;;;;;10.35;5.53;;;24.50;76.40;;;;;;5118323;28;20051;-70
2022/07/29 12:35:13;;;;;;;12.10;6.78;;;22.50;87.90;;;;;;5102979;28;20327;-68
2022/07/29 12:37:40;;;;;;;13.90;6.53;;;20.40;93.40;;;;;;5116484;28;20016;-69
2022/07/29 12:40:08;;;;;;;13.57;7.78;;;19.50;95.60;;;;;;5112800;28;20366;-69
2022/07/29 12:42:34;;;;;;;9.43;6.45;;;19.20;93.20;;;;;;5118541;28;20312;-69
2022/07/29 12:45:01;;;;;;;10.55;8.13;;;19.10;96.10;;;;;;5118461;28;20035;-70
2022/07/29 12:47:27;;;;;;;11.18;7.40;;;19.10;92.60;;;;;;5115162;28;20019;-69
2022/07/29 12:50:14;;;;;;;10.80;7.30;;;19.50;91.50;;;;;;5114863;28;20103;-70
2022/07/29 12:52:41;;;;;;;11.80;6.90;;;19.90;89.90;;;;;;5111698;28;20409;-68
2022/07/29 12:55:07;;;;;;;12.80;6.93;;;20.30;93.20;;;;;;5116389;28;20043;-68
2022/07/29 12:57:46;;;;;;;11.10;7.65;;;20.70;93.00;;;;;;5115931;28;20347;-70
2022/07/29 13:00:13;;;;;;;9.82;6.93;;;21.00;93.40;;;;;;5119171;27;20023;-70
2022/07/29 13:02:43;;;;;;;9.35;6.43;;;21.10;96.20;;;;;;5115512;28;20089;-68
2022/07/29 13:05:10;;;;;;;7.78;5.50;;;21.20;95.00;;;;;;5116288;27;20081;-69
2022/07/29 13:07:37;;;;;;;7.35;4.82;;;21.30;96.30;;;;;;5116314;28;20020;-68